IOLK1: Grand River, Iola

Data processed at Fri May 29 23:26:17 2015 Central Daylight Time


All information presented herein is the property of the government of the United States of America and may be revised or deleted at any time without prior notice.
Dissemination of this information without the expressed written consent of the Public Affairs Office, Tulsa District U.S. Army Corps of Engineers is strictly prohibited.
These data are gathered electronically and, as presented, have not undergone any form of quality control. These data are not guaranteed to be valid or correct.
Go to home page.
Go to station list.
Go to station map.

Upstream stations:

Downstream station: Previous Day
Next Day
Current Day

Display graphics.
Display DCP transmissions.


    
    SHEF ID:       IOLK1     Grand River, Iola
    STATION TYPE:  STREAM GAGE
    Regulation Limits:  Stage =   15.00, Flow =   19174
    
                   PRECIP     STAGE  RIV-FLOW  AIR-TEMP  BAT-LOAD
                   INCHES      FEET       CFS     DEG-F     VOLTS
                     GOES      GOES      GOES      GOES      GOES
       (Cen)
    05/29 01:00      0.00      9.47      5908     68.89     12.73
    05/29 02:00      0.00      9.54      6186     68.62     12.73
    05/29 03:00      0.00      9.57      6307     69.23     12.73
    05/29 04:00      0.00      9.65      6636     68.86     12.65
    05/29 05:00      0.48      9.70      6846     65.69     12.65
    05/29 06:00      0.17      9.75      7059     65.62     12.65
    05/29 07:00      0.06      9.83      7406     65.45     12.65
    05/29 08:00      0.10      9.96      7985     65.28     12.65
    05/29 09:00      0.03     10.04      8351     66.18     12.73
    05/29 10:00      0.01     10.21      9164     67.57     12.97
    05/29 11:00      0.00     10.30      9610     68.68     13.05
    05/29 12:00      0.01     10.55     10844     69.09     13.29
    05/29 13:00      0.01     10.75     11278     69.37     13.21
    05/29 14:00      0.05     11.20     12157     68.99     13.21
    05/29 15:00      0.03     11.58     12827     69.38     13.29
    05/29 16:00      0.00     11.92     13422     69.37     13.37
    05/29 17:00      0.00     12.28     14144     69.48     13.21
    05/29 18:00      0.00     12.70     14874     70.79     13.05
    05/29 19:00      0.00     13.06     15600     69.77     12.73
    05/29 20:00      0.00     13.46     16296     68.33     12.57
    05/29 21:00      0.00     13.73     16765     67.42     12.57
    05/29 22:00      0.00     14.01     17265     66.57     12.57
    05/29 23:00      ----     14.01     17265      ----      ----
    05/30 00:00      ----      ----      ----      ----      ----